CYVR/YVR METAR and TAF weather

Enter ICAO airport designator
Station Type Date Time Source
CYVR METAR 2020/02/25 00:00 UTC NOAA

CYVR 250000Z 26008KT 20SM FEW052 BKN160 BKN260 07/M01 A3060 RMK SC1AC6CI1 SC TR SLP362


Station Type Date Time Source
CYVR Decoded METAR 2020/02/25 00:00 UTC NOAA

Vancouver International Air-Port, B. C., Canada (CYVR) 49-11N 123-10W 2M
Feb 24, 2020 - 07:00 PM EST / 2020.02.25 0000 UTC
Wind: from the W (260 degrees) at 9 MPH (8 KT):0
Visibility: 20 mile(s):0
Sky conditions: mostly cloudy
Temperature: 44 F (7 C)
Dew Point: 30 F (-1 C)
Relative Humidity: 56%
Pressure (altimeter): 30.6 in. Hg (1036 hPa)
ob: CYVR 250000Z 26008KT 20SM FEW052 BKN160 BKN260 07/M01 A3060 RMK SC1AC6CI1 SC TR SLP362
cycle: 0

Station Type Date Time Source
CYVR TAF 2020/02/24 21:42 UTC NOAA

TAF CYVR 242038Z 2421/2524 28015KT P6SM FEW030 SCT060 BKN220
BECMG 2422/2424 VRB03KT
FM250300 10005KT P6SM SCT050 BKN090 BKN150
FM250900 08008KT P6SM SCT030 BKN050 OVC090
FM252000 09010KT P6SM -RA SCT012 BKN025 OVC040
RMK NXT FCST BY 250000Z

Example: see airport list